Time;durP1;ratioP1;P1;durP2;ratioP2;P2;SDS_P1;SDS_P2;PMS_P1;PMS_P2;Temp;Humidity;BMP_temperature;BMP_pressure;BME280_temperature;BME280_humidity;BME280_pressure;Samples;Min_cycle;Max_cycle;Signal;HPM_P1;HPM_P2
2022/10/12 00:00:33;;;;;;;40.72;26.58;;;11.60;99.90;;;;;;5032032;28;20517;-81
2022/10/12 00:02:59;;;;;;;38.47;26.48;;;11.60;99.90;;;;;;5015366;28;20459;-81
2022/10/12 00:05:25;;;;;;;40.60;27.27;;;11.60;99.90;;;;;;5021089;28;20052;-81
2022/10/12 00:07:51;;;;;;;46.35;29.17;;;11.70;99.90;;;;;;5031921;28;20018;-81
2022/10/12 00:10:17;;;;;;;40.63;28.65;;;11.70;99.90;;;;;;5031993;28;20030;-81
2022/10/12 00:12:43;;;;;;;39.40;26.42;;;11.70;99.90;;;;;;5030548;28;20045;-81
2022/10/12 00:15:09;;;;;;;42.00;27.48;;;11.70;99.90;;;;;;5027109;28;20112;-81
2022/10/12 00:17:35;;;;;;;43.53;28.83;;;11.70;99.90;;;;;;5022864;28;20021;-81
2022/10/12 00:20:01;;;;;;;45.95;29.33;;;11.70;99.90;;;;;;5031948;28;20374;-81
2022/10/12 00:22:26;;;;;;;43.65;28.48;;;11.70;99.90;;;;;;5031594;28;20029;-81
2022/10/12 00:24:52;;;;;;;44.35;28.02;;;11.70;99.90;;;;;;5031612;28;20516;-81
2022/10/12 00:27:18;;;;;;;42.35;28.67;;;11.70;99.90;;;;;;5031782;28;20021;-81
2022/10/12 00:29:43;;;;;;;43.03;28.42;;;11.70;99.90;;;;;;5044446;28;20389;-81
2022/10/12 00:32:09;;;;;;;47.53;27.60;;;11.70;99.90;;;;;;5032740;28;20149;-81
2022/10/12 00:34:35;;;;;;;36.70;26.17;;;11.70;99.90;;;;;;5035621;28;20030;-81
2022/10/12 00:37:00;;;;;;;42.63;28.42;;;11.80;99.90;;;;;;5035238;28;20525;-81
2022/10/12 00:39:26;;;;;;;41.60;26.88;;;11.80;99.90;;;;;;5030498;28;20123;-81
2022/10/12 00:41:53;;;;;;;38.10;26.40;;;11.80;99.90;;;;;;5015632;28;20502;-81
2022/10/12 00:44:51;;;;;;;34.92;25.65;;;11.80;99.90;;;;;;5032537;28;20033;-81
2022/10/12 00:47:35;;;;;;;36.40;25.65;;;11.70;99.90;;;;;;5034002;28;20032;-81
2022/10/12 00:50:28;;;;;;;40.42;27.90;;;11.70;99.90;;;;;;5023692;28;20506;-80
2022/10/12 00:53:08;;;;;;;37.97;24.90;;;11.70;99.90;;;;;;5035385;28;20031;-81
2022/10/12 00:55:38;;;;;;;43.40;26.52;;;11.70;99.90;;;;;;5023741;28;20034;-81
2022/10/12 00:58:07;;;;;;;39.67;25.80;;;11.70;99.90;;;;;;5015239;28;20025;-81
2022/10/12 01:00:33;;;;;;;42.90;26.75;;;11.70;99.90;;;;;;5014777;28;20081;-81
2022/10/12 01:02:59;;;;;;;38.80;26.45;;;11.70;99.90;;;;;;5034075;28;20041;-80
2022/10/12 01:05:26;;;;;;;40.88;26.67;;;11.70;99.90;;;;;;5031269;28;20025;-80
2022/10/12 01:07:51;;;;;;;49.38;28.02;;;11.70;99.90;;;;;;5034575;28;20485;-81
2022/10/12 01:10:17;;;;;;;41.95;28.02;;;11.70;99.90;;;;;;5034620;28;20053;-81
2022/10/12 01:12:45;;;;;;;40.08;28.55;;;11.70;99.90;;;;;;5024642;28;20025;-81
2022/10/12 01:15:12;;;;;;;44.65;29.08;;;11.70;99.90;;;;;;5030775;28;20080;-81
2022/10/12 01:17:52;;;;;;;44.00;28.15;;;11.60;99.90;;;;;;5034611;28;20021;-81
2022/10/12 01:20:37;;;;;;;41.95;27.27;;;11.60;99.90;;;;;;5032435;28;20184;-80
2022/10/12 01:23:21;;;;;;;40.03;28.45;;;11.60;99.90;;;;;;5014744;28;20026;-81
2022/10/12 01:25:56;;;;;;;43.92;26.98;;;11.60;99.90;;;;;;5033639;28;20047;-81
2022/10/12 01:28:44;;;;;;;40.90;27.02;;;11.60;99.90;;;;;;5046808;28;20339;-81
2022/10/12 01:31:24;;;;;;;42.45;28.15;;;11.60;99.90;;;;;;5027139;28;20379;-81
2022/10/12 01:34:04;;;;;;;45.50;28.65;;;11.60;99.90;;;;;;5029789;28;20056;-81
2022/10/12 01:36:36;;;;;;;42.38;28.38;;;11.60;99.90;;;;;;5034018;28;20032;-80
2022/10/12 01:39:07;;;;;;;39.35;27.75;;;11.60;99.90;;;;;;5034039;28;20029;-81
2022/10/12 01:41:45;;;;;;;40.83;28.05;;;11.50;99.90;;;;;;5033811;28;20113;-81
2022/10/12 01:44:18;;;;;;;46.17;29.33;;;11.50;99.90;;;;;;5031599;28;20075;-81
2022/10/12 01:46:44;;;;;;;42.55;28.55;;;11.50;99.90;;;;;;5023382;28;20076;-81
2022/10/12 01:49:12;;;;;;;42.70;29.00;;;11.50;99.90;;;;;;5018667;28;20076;-81
2022/10/12 01:51:59;;;;;;;44.35;29.67;;;11.50;99.90;;;;;;5021900;28;20034;-81
2022/10/12 01:55:06;;;;;;;42.17;28.85;;;11.50;99.90;;;;;;5033639;28;20026;-81
2022/10/12 01:57:49;;;;;;;53.75;30.65;;;11.60;99.90;;;;;;5033485;28;20470;-81
2022/10/12 02:00:16;;;;;;;47.85;29.10;;;11.60;99.90;;;;;;5025422;28;20025;-81
2022/10/12 02:03:06;;;;;;;47.60;28.40;;;11.60;99.90;;;;;;5014526;28;20425;-81
2022/10/12 02:05:48;;;;;;;39.00;28.15;;;11.60;99.90;;;;;;5033782;28;20026;-81
2022/10/12 02:08:40;;;;;;;49.42;28.33;;;11.60;99.90;;;;;;5019780;28;20024;-81
2022/10/12 02:11:11;;;;;;;43.17;27.67;;;11.60;99.90;;;;;;5033392;28;20040;-81
2022/10/12 02:14:12;;;;;;;47.20;29.92;;;11.60;99.90;;;;;;5033247;28;20017;-81
2022/10/12 02:16:44;;;;;;;49.88;29.13;;;11.60;99.90;;;;;;5033474;28;20124;-81
2022/10/12 02:19:15;;;;;;;43.15;29.50;;;11.60;99.90;;;;;;5033487;28;20026;-81
2022/10/12 02:21:42;;;;;;;37.63;26.95;;;11.60;99.90;;;;;;5033109;28;20029;-81
2022/10/12 02:24:10;;;;;;;43.35;28.17;;;11.60;99.90;;;;;;5033227;28;20052;-81
2022/10/12 02:26:41;;;;;;;38.20;27.42;;;11.60;99.90;;;;;;5033073;28;20013;-81
2022/10/12 02:29:12;;;;;;;43.45;28.75;;;11.60;99.90;;;;;;5033256;28;20053;-81
2022/10/12 02:31:49;;;;;;;40.10;28.88;;;11.50;99.90;;;;;;5021617;28;20041;-81
2022/10/12 02:34:20;;;;;;;42.30;28.30;;;11.60;99.90;;;;;;5013332;28;20125;-81
2022/10/12 02:37:32;;;;;;;40.95;27.75;;;11.50;99.90;;;;;;5027275;28;20459;-81
2022/10/12 02:40:18;;;;;;;39.55;27.30;;;11.50;99.90;;;;;;5031452;28;20045;-81
2022/10/12 02:42:51;;;;;;;42.60;28.48;;;11.50;99.90;;;;;;5020581;28;20033;-81
2022/10/12 02:45:21;;;;;;;48.22;28.67;;;11.50;99.90;;;;;;5032842;28;20076;-81
2022/10/12 02:47:49;;;;;;;44.70;28.10;;;11.60;99.90;;;;;;5032964;28;20533;-81
2022/10/12 02:50:18;;;;;;;47.55;28.98;;;11.60;99.90;;;;;;5032840;28;20037;-81
2022/10/12 02:52:45;;;;;;;43.30;28.45;;;11.60;99.90;;;;;;5032114;28;20029;-81
2022/10/12 02:55:11;;;;;;;43.05;27.98;;;11.60;99.90;;;;;;5019798;28;20190;-82
2022/10/12 02:57:36;;;;;;;44.15;28.00;;;11.60;99.90;;;;;;5030463;28;20495;-81
2022/10/12 03:00:03;;;;;;;40.45;27.95;;;11.60;99.90;;;;;;5032679;28;20028;-81
2022/10/12 03:02:28;;;;;;;57.55;32.15;;;11.60;99.90;;;;;;5020599;28;20155;-81
2022/10/12 03:04:54;;;;;;;54.80;33.58;;;11.60;99.90;;;;;;5044780;28;20096;-81
2022/10/12 03:07:19;;;;;;;59.22;32.65;;;11.60;99.90;;;;;;5032394;28;20097;-81
2022/10/12 03:09:45;;;;;;;54.53;31.63;;;11.50;99.90;;;;;;5028533;28;20021;-81
2022/10/12 03:12:10;;;;;;;53.38;31.98;;;11.60;99.90;;;;;;5032854;28;20022;-81
2022/10/12 03:14:36;;;;;;;60.10;31.58;;;11.60;99.90;;;;;;5032269;28;20026;-80
2022/10/12 03:17:03;;;;;;;55.92;33.13;;;11.60;99.90;;;;;;5032443;28;20032;-81
2022/10/12 03:19:28;;;;;;;49.53;30.52;;;11.60;99.90;;;;;;5032529;28;20044;-81
2022/10/12 03:21:54;;;;;;;44.50;30.25;;;11.60;99.90;;;;;;5032642;28;20048;-81
2022/10/12 03:24:19;;;;;;;55.50;31.77;;;11.60;99.90;;;;;;5032339;28;20047;-81
2022/10/12 03:26:46;;;;;;;61.65;35.08;;;11.60;99.90;;;;;;5016722;28;20061;-81
2022/10/12 03:29:11;;;;;;;58.35;34.13;;;11.60;99.90;;;;;;5020404;28;20018;-80
2022/10/12 03:31:37;;;;;;;55.13;33.38;;;11.60;99.90;;;;;;5019883;28;20053;-80
2022/10/12 03:34:02;;;;;;;58.75;35.15;;;11.60;99.90;;;;;;5031476;28;20033;-80
2022/10/12 03:36:28;;;;;;;68.13;35.25;;;11.60;99.90;;;;;;5031902;28;20087;-80
2022/10/12 03:38:54;;;;;;;72.05;37.92;;;11.60;99.90;;;;;;5018430;28;20392;-80
2022/10/12 03:41:19;;;;;;;77.53;39.50;;;11.60;99.90;;;;;;5032273;28;20068;-80
2022/10/12 03:43:45;;;;;;;96.65;42.08;;;11.60;99.90;;;;;;5031031;28;20032;-80
2022/10/12 03:46:11;;;;;;;89.20;42.22;;;11.50;99.90;;;;;;5020437;28;20017;-80
2022/10/12 03:48:36;;;;;;;83.22;40.78;;;11.50;99.90;;;;;;5032396;28;20029;-80
2022/10/12 03:51:02;;;;;;;102.65;42.67;;;11.50;99.90;;;;;;5032401;28;20097;-81
2022/10/12 03:53:28;;;;;;;87.25;42.30;;;11.50;99.90;;;;;;5032007;28;20063;-81
2022/10/12 03:55:53;;;;;;;95.28;43.97;;;11.50;99.90;;;;;;5018399;28;20068;-81
2022/10/12 03:58:19;;;;;;;102.60;43.50;;;11.50;99.90;;;;;;5032231;28;20094;-81
2022/10/12 04:00:44;;;;;;;112.45;45.67;;;11.50;99.90;;;;;;5046119;28;20032;-81
2022/10/12 04:03:10;;;;;;;114.82;44.78;;;11.50;99.90;;;;;;5032092;28;20435;-81
2022/10/12 04:05:35;;;;;;;107.50;43.13;;;11.50;99.90;;;;;;5033379;28;20048;-81
2022/10/12 04:08:01;;;;;;;105.20;41.17;;;11.50;99.90;;;;;;5018001;28;20360;-80
2022/10/12 04:10:27;;;;;;;156.18;46.10;;;11.50;99.90;;;;;;5028534;28;20108;-80
2022/10/12 04:12:52;;;;;;;105.18;43.63;;;11.50;99.90;;;;;;5016360;28;20022;-80
2022/10/12 04:15:18;;;;;;;127.78;44.97;;;11.50;99.90;;;;;;5035880;28;20072;-80
2022/10/12 04:17:44;;;;;;;103.85;45.63;;;11.50;99.90;;;;;;5036077;28;20017;-81
2022/10/12 04:20:11;;;;;;;136.35;48.38;;;11.50;99.90;;;;;;5047730;28;20104;-80
2022/10/12 04:22:37;;;;;;;124.32;44.97;;;11.50;99.90;;;;;;5033788;28;20461;-80
2022/10/12 04:25:03;;;;;;;129.57;45.15;;;11.40;99.90;;;;;;5035882;28;20415;-80
2022/10/12 04:27:28;;;;;;;148.45;46.45;;;11.50;99.90;;;;;;5036073;28;20056;-80
2022/10/12 04:29:54;;;;;;;147.52;45.75;;;11.40;99.90;;;;;;5035773;28;20414;-81
2022/10/12 04:32:19;;;;;;;116.65;46.15;;;11.40;99.90;;;;;;5019012;28;20406;-81
2022/10/12 04:34:45;;;;;;;144.48;44.22;;;11.40;99.90;;;;;;5027728;28;20045;-80
2022/10/12 04:37:11;;;;;;;110.25;47.05;;;11.40;99.90;;;;;;5035614;28;20421;-81
2022/10/12 04:39:36;;;;;;;101.82;47.83;;;11.40;99.90;;;;;;5035619;28;20029;-81
2022/10/12 04:42:02;;;;;;;99.40;47.38;;;11.40;99.90;;;;;;5035731;28;20036;-80
2022/10/12 04:44:29;;;;;;;112.43;46.78;;;11.40;99.90;;;;;;5035491;28;20036;-80
2022/10/12 04:46:55;;;;;;;97.75;47.13;;;11.40;99.90;;;;;;5035570;28;20036;-80
2022/10/12 04:49:21;;;;;;;125.68;48.42;;;11.50;99.90;;;;;;5035221;28;20034;-80
2022/10/12 04:51:46;;;;;;;108.65;47.40;;;11.40;99.90;;;;;;5035388;28;20025;-81
2022/10/12 04:54:12;;;;;;;149.25;46.45;;;11.50;99.90;;;;;;5035579;28;20111;-80
2022/10/12 04:56:37;;;;;;;113.82;46.83;;;11.50;99.90;;;;;;5035543;28;20025;-81
2022/10/12 04:59:03;;;;;;;138.70;47.53;;;11.40;99.90;;;;;;5033949;28;20025;-80
2022/10/12 05:01:28;;;;;;;151.90;49.42;;;11.50;99.90;;;;;;5027911;28;20041;-81
2022/10/12 05:03:54;;;;;;;116.38;48.65;;;11.40;99.90;;;;;;5026898;28;20018;-80
2022/10/12 05:06:20;;;;;;;136.98;48.13;;;11.40;99.90;;;;;;5033801;28;20032;-80
2022/10/12 05:08:45;;;;;;;150.13;47.53;;;11.40;99.90;;;;;;5035468;28;20119;-80
2022/10/12 05:11:11;;;;;;;153.73;48.53;;;11.50;99.90;;;;;;5021511;28;20036;-81
2022/10/12 05:13:37;;;;;;;124.43;49.30;;;11.40;99.90;;;;;;5029706;28;20101;-80
2022/10/12 05:16:02;;;;;;;110.72;47.00;;;11.40;99.90;;;;;;5026045;28;20049;-80
2022/10/12 05:18:28;;;;;;;125.10;46.42;;;11.40;99.90;;;;;;5034965;28;20532;-80
2022/10/12 05:20:53;;;;;;;129.93;49.25;;;11.40;99.90;;;;;;5034579;28;20025;-80
2022/10/12 05:23:19;;;;;;;164.80;49.10;;;11.40;99.90;;;;;;5034883;28;20026;-80
2022/10/12 05:25:44;;;;;;;123.93;50.17;;;11.40;99.90;;;;;;5054584;28;20085;-80
2022/10/12 05:28:10;;;;;;;131.73;49.97;;;11.40;99.90;;;;;;5041213;28;20062;-80
2022/10/12 05:30:36;;;;;;;162.30;49.15;;;11.40;99.90;;;;;;5040012;28;20021;-80
2022/10/12 05:33:01;;;;;;;134.60;51.03;;;11.40;99.90;;;;;;5054497;28;20017;-80
2022/10/12 05:35:27;;;;;;;109.40;48.63;;;11.50;99.90;;;;;;5054452;28;20455;-80
2022/10/12 05:37:52;;;;;;;140.20;49.95;;;11.50;99.90;;;;;;5045179;28;20022;-80
2022/10/12 05:40:18;;;;;;;135.82;50.30;;;11.50;99.90;;;;;;5034566;28;20037;-80
2022/10/12 05:42:44;;;;;;;161.98;50.65;;;11.50;99.90;;;;;;5031059;28;20040;-81
2022/10/12 05:45:10;;;;;;;125.57;50.88;;;11.50;99.90;;;;;;5033728;28;20430;-81
2022/10/12 05:47:36;;;;;;;121.43;47.17;;;11.40;99.90;;;;;;5030366;28;20057;-81
2022/10/12 05:50:02;;;;;;;145.02;49.33;;;11.50;99.90;;;;;;5032846;28;20064;-81
2022/10/12 05:52:27;;;;;;;127.32;49.83;;;11.50;99.90;;;;;;5032986;28;20455;-81
2022/10/12 05:54:53;;;;;;;122.25;46.08;;;11.50;99.90;;;;;;5034143;28;20392;-81
2022/10/12 05:57:19;;;;;;;108.65;45.55;;;11.50;99.90;;;;;;5034769;28;20112;-80
2022/10/12 05:59:44;;;;;;;105.82;48.47;;;11.50;99.90;;;;;;5026734;28;20030;-80
2022/10/12 06:02:15;;;;;;;120.07;48.55;;;11.50;99.90;;;;;;5027135;28;20366;-81
2022/10/12 06:04:40;;;;;;;195.95;50.25;;;11.50;99.90;;;;;;5020444;28;20017;-80
2022/10/12 06:07:06;;;;;;;129.18;45.65;;;11.50;99.90;;;;;;5022202;28;20026;-81
2022/10/12 06:09:31;;;;;;;174.05;46.97;;;11.50;99.90;;;;;;5014311;28;20041;-81
2022/10/12 06:11:57;;;;;;;167.25;49.05;;;11.50;99.90;;;;;;5020258;28;20089;-81
2022/10/12 06:14:23;;;;;;;124.32;47.85;;;11.50;99.90;;;;;;5022027;28;20029;-81
2022/10/12 06:16:48;;;;;;;105.00;49.17;;;11.50;99.90;;;;;;5017714;28;20069;-81
2022/10/12 06:19:14;;;;;;;130.32;50.53;;;11.50;99.90;;;;;;5032365;28;20037;-83
2022/10/12 06:21:40;;;;;;;124.25;47.97;;;11.50;99.90;;;;;;5033235;28;20100;-80
2022/10/12 06:24:05;;;;;;;129.18;48.78;;;11.60;99.90;;;;;;5033995;28;20025;-81
2022/10/12 06:26:31;;;;;;;145.52;48.78;;;11.60;99.90;;;;;;5033740;28;20033;-80
2022/10/12 06:28:59;;;;;;;148.63;49.03;;;11.60;99.90;;;;;;5024482;28;20080;-80
2022/10/12 06:31:25;;;;;;;132.50;49.53;;;11.60;99.90;;;;;;5024655;28;20029;-77
2022/10/12 06:33:52;;;;;;;115.78;49.00;;;11.70;99.90;;;;;;5018776;28;20458;-77
2022/10/12 06:36:18;;;;;;;121.43;50.58;;;11.70;99.90;;;;;;5030080;28;20056;-77
2022/10/12 06:38:44;;;;;;;107.57;46.78;;;11.70;99.90;;;;;;5028200;28;20029;-77
2022/10/12 06:41:09;;;;;;;144.85;47.78;;;11.70;99.90;;;;;;5032824;28;20109;-81
2022/10/12 06:43:35;;;;;;;139.93;50.08;;;11.70;99.90;;;;;;5032990;28;20052;-81
2022/10/12 06:46:01;;;;;;;127.43;49.20;;;11.70;99.90;;;;;;5033438;28;20057;-80
2022/10/12 06:48:27;;;;;;;111.93;48.03;;;11.80;99.90;;;;;;5033264;28;20439;-81
2022/10/12 06:50:53;;;;;;;106.43;49.40;;;11.70;99.90;;;;;;5033299;28;20025;-81
2022/10/12 06:53:18;;;;;;;101.80;45.35;;;11.80;99.90;;;;;;5033360;28;20033;-80
2022/10/12 06:55:44;;;;;;;102.80;48.58;;;11.80;99.90;;;;;;5033212;28;20033;-80
2022/10/12 06:58:10;;;;;;;111.60;47.35;;;11.80;99.90;;;;;;5033445;28;20104;-81
2022/10/12 07:00:36;;;;;;;101.85;47.10;;;11.90;99.90;;;;;;5033309;28;20092;-81
2022/10/12 07:03:02;;;;;;;109.75;47.08;;;11.80;99.90;;;;;;5032943;28;20402;-80
2022/10/12 07:05:28;;;;;;;103.30;48.30;;;11.90;99.90;;;;;;5033081;28;20028;-80
2022/10/12 07:07:54;;;;;;;95.40;42.90;;;11.90;99.90;;;;;;5033121;28;20029;-81
2022/10/12 07:10:19;;;;;;;85.55;43.95;;;11.90;99.90;;;;;;5026523;28;20081;-81
2022/10/12 07:12:45;;;;;;;80.97;41.25;;;12.00;99.90;;;;;;5013262;28;20049;-81
2022/10/12 07:15:11;;;;;;;80.03;42.50;;;12.00;99.90;;;;;;5013257;28;20080;-80
2022/10/12 07:17:36;;;;;;;82.32;42.20;;;12.00;99.90;;;;;;5023898;28;20187;-81
2022/10/12 07:20:03;;;;;;;89.90;46.92;;;12.00;99.90;;;;;;5032922;28;20482;-81
2022/10/12 07:22:28;;;;;;;98.65;45.65;;;12.00;99.90;;;;;;5032830;28;20034;-81
2022/10/12 07:24:54;;;;;;;129.23;46.72;;;12.00;99.90;;;;;;5032228;28;20041;-81
2022/10/12 07:27:19;;;;;;;98.40;44.15;;;12.10;99.90;;;;;;5013149;28;20026;-80
2022/10/12 07:29:45;;;;;;;93.07;44.10;;;12.00;99.90;;;;;;5013157;28;20105;-81
2022/10/12 07:32:10;;;;;;;100.93;43.25;;;12.10;99.90;;;;;;5013081;28;20033;-81
2022/10/12 07:34:36;;;;;;;99.25;42.35;;;12.10;99.90;;;;;;5013044;28;20064;-81
2022/10/12 07:37:02;;;;;;;107.63;42.33;;;12.10;99.90;;;;;;5012873;28;20030;-81
2022/10/12 07:39:28;;;;;;;98.78;41.45;;;12.10;99.90;;;;;;5014320;28;20030;-81
2022/10/12 07:41:53;;;;;;;90.78;37.85;;;12.10;99.90;;;;;;5017057;28;20082;-81
2022/10/12 07:44:19;;;;;;;88.90;36.78;;;12.10;99.90;;;;;;5017236;28;20022;-81
2022/10/12 07:46:45;;;;;;;78.30;39.38;;;12.10;99.90;;;;;;5017147;28;20049;-81
2022/10/12 07:49:12;;;;;;;83.97;39.78;;;12.10;99.90;;;;;;5017084;28;20029;-81
2022/10/12 07:51:38;;;;;;;88.68;38.60;;;12.10;99.90;;;;;;5027279;28;20050;-80
2022/10/12 07:54:04;;;;;;;85.15;39.47;;;12.10;99.90;;;;;;5022595;28;20030;-81
2022/10/12 07:56:29;;;;;;;88.97;41.80;;;12.10;99.90;;;;;;5028135;28;20026;-81
2022/10/12 07:58:56;;;;;;;75.07;40.22;;;12.00;99.90;;;;;;5016695;28;20029;-81
2022/10/12 08:01:25;;;;;;;75.97;37.70;;;12.10;99.90;;;;;;5023349;28;20029;-80
2022/10/12 08:03:51;;;;;;;69.05;37.88;;;12.10;99.90;;;;;;5036342;28;20030;-81
2022/10/12 08:06:20;;;;;;;74.90;39.72;;;12.10;99.90;;;;;;5036663;28;20417;-81
2022/10/12 08:08:47;;;;;;;72.97;37.72;;;12.10;99.90;;;;;;5024994;28;20022;-81
2022/10/12 08:11:14;;;;;;;72.85;38.72;;;12.10;99.90;;;;;;5030491;28;20083;-81
2022/10/12 08:13:40;;;;;;;71.57;36.97;;;12.10;99.90;;;;;;5022538;28;20032;-81
2022/10/12 08:16:11;;;;;;;70.15;37.50;;;12.20;99.90;;;;;;5036052;28;20486;-81
2022/10/12 08:18:37;;;;;;;71.43;35.58;;;12.10;99.90;;;;;;5031705;28;20030;-81
2022/10/12 08:21:04;;;;;;;65.40;36.42;;;12.20;99.90;;;;;;5016341;28;20467;-81
2022/10/12 08:23:29;;;;;;;70.70;38.38;;;12.20;99.90;;;;;;5016529;28;20160;-81
2022/10/12 08:25:56;;;;;;;65.47;37.20;;;12.30;99.90;;;;;;5025060;28;20117;-81
2022/10/12 08:28:22;;;;;;;60.60;35.47;;;12.40;99.90;;;;;;5034964;28;20025;-81
2022/10/12 08:30:48;;;;;;;63.75;36.47;;;12.40;99.90;;;;;;5023009;28;20370;-81
2022/10/12 08:33:15;;;;;;;65.25;34.28;;;12.50;99.90;;;;;;5035942;28;20500;-81
2022/10/12 08:35:41;;;;;;;61.80;36.40;;;12.60;99.90;;;;;;5021914;28;20104;-81
2022/10/12 08:38:10;;;;;;;55.00;32.85;;;12.60;99.90;;;;;;5034455;28;20483;-77
2022/10/12 08:41:01;;;;;;;56.35;33.95;;;12.70;99.90;;;;;;5033701;28;20017;-77
2022/10/12 08:43:34;;;;;;;57.97;33.55;;;12.70;99.90;;;;;;5012189;28;20046;-75
2022/10/12 08:46:02;;;;;;;48.80;31.33;;;12.80;99.90;;;;;;5019364;28;20025;-76
2022/10/12 08:48:48;;;;;;;54.33;33.10;;;12.80;99.90;;;;;;5032628;28;20025;-76
2022/10/12 08:51:18;;;;;;;56.65;31.90;;;12.90;99.90;;;;;;5019287;28;20104;-76
2022/10/12 08:53:53;;;;;;;53.95;30.33;;;12.90;99.90;;;;;;5035377;28;20450;-76
2022/10/12 08:56:20;;;;;;;54.70;30.20;;;13.00;99.90;;;;;;5022475;28;20056;-76
2022/10/12 08:58:47;;;;;;;50.10;30.58;;;13.00;99.90;;;;;;5035115;28;20346;-76
2022/10/12 09:01:36;;;;;;;46.95;29.88;;;13.10;99.90;;;;;;5034317;28;20033;-76
2022/10/12 09:04:26;;;;;;;44.95;28.50;;;13.10;99.90;;;;;;5034023;28;20117;-76
2022/10/12 09:07:00;;;;;;;41.95;26.75;;;13.10;99.90;;;;;;5033169;28;20339;-76
2022/10/12 09:09:51;;;;;;;42.58;26.15;;;13.20;99.90;;;;;;5019394;28;20390;-76
2022/10/12 09:12:50;;;;;;;38.22;25.17;;;13.30;99.90;;;;;;5021426;28;20493;-76
2022/10/12 09:15:25;;;;;;;41.95;25.25;;;13.30;99.90;;;;;;5032224;28;20049;-76
2022/10/12 09:17:55;;;;;;;38.42;24.20;;;13.30;99.90;;;;;;5032913;28;20064;-76
2022/10/12 09:20:27;;;;;;;35.13;23.70;;;13.30;99.90;;;;;;5018406;28;20040;-76
2022/10/12 09:22:59;;;;;;;34.50;23.02;;;13.40;99.90;;;;;;5032298;28;20128;-76
2022/10/12 09:25:26;;;;;;;36.25;22.38;;;13.40;99.90;;;;;;5032147;28;20018;-76
2022/10/12 09:27:54;;;;;;;35.10;22.80;;;13.40;99.90;;;;;;5021360;28;20034;-76
2022/10/12 09:30:20;;;;;;;37.97;24.15;;;13.50;99.90;;;;;;5029005;28;20094;-76
2022/10/12 09:32:55;;;;;;;38.67;23.10;;;13.40;99.90;;;;;;5027191;28;20057;-76
2022/10/12 09:35:20;;;;;;;34.55;22.58;;;13.40;99.90;;;;;;5031888;28;20363;-76
2022/10/12 09:37:51;;;;;;;36.40;23.23;;;13.40;99.90;;;;;;5032084;28;20031;-76
2022/10/12 09:40:26;;;;;;;39.45;24.15;;;13.30;99.90;;;;;;5032087;28;20502;-76
2022/10/12 09:42:53;;;;;;;36.50;23.05;;;13.30;99.90;;;;;;5031825;28;20028;-76
2022/10/12 09:45:21;;;;;;;39.63;24.15;;;13.40;99.90;;;;;;5031702;28;20796;-76
2022/10/12 09:48:10;;;;;;;39.90;25.50;;;13.40;99.90;;;;;;5033682;28;20104;-76
2022/10/12 09:50:52;;;;;;;41.95;26.00;;;13.40;99.90;;;;;;5033569;28;20017;-76
2022/10/12 09:53:33;;;;;;;37.55;23.67;;;13.50;99.90;;;;;;5033594;28;20021;-76
2022/10/12 09:56:03;;;;;;;37.00;23.13;;;13.50;99.90;;;;;;5032694;28;20036;-76
2022/10/12 09:58:31;;;;;;;42.05;24.42;;;13.50;99.90;;;;;;5032904;28;20104;-76
2022/10/12 10:01:23;;;;;;;40.85;25.02;;;13.60;99.90;;;;;;5031676;28;20497;-76
2022/10/12 10:04:09;;;;;;;45.15;26.08;;;13.60;99.90;;;;;;5031615;28;20083;-76
2022/10/12 10:06:38;;;;;;;42.60;25.40;;;13.60;99.90;;;;;;5031599;28;20018;-76
2022/10/12 10:09:04;;;;;;;39.38;25.05;;;13.60;99.90;;;;;;5031491;28;20025;-76
2022/10/12 10:11:30;;;;;;;39.50;23.73;;;13.60;99.90;;;;;;5031321;28;20108;-76
2022/10/12 10:13:59;;;;;;;40.00;23.73;;;13.70;99.90;;;;;;5031351;28;20056;-76
2022/10/12 10:16:27;;;;;;;39.30;22.92;;;13.70;99.90;;;;;;5030949;28;20060;-76
2022/10/12 10:18:52;;;;;;;36.42;22.13;;;13.80;99.90;;;;;;5029693;28;20415;-76
2022/10/12 10:21:37;;;;;;;28.98;19.40;;;14.00;99.90;;;;;;5030870;28;20076;-76
2022/10/12 10:24:06;;;;;;;33.75;20.63;;;14.10;99.90;;;;;;5018630;28;20048;-76
2022/10/12 10:26:53;;;;;;;31.15;19.27;;;14.20;99.90;;;;;;5031189;28;20548;-76
2022/10/12 10:29:31;;;;;;;32.20;18.83;;;14.40;99.90;;;;;;5020082;28;20052;-77
2022/10/12 10:32:11;;;;;;;29.77;19.08;;;14.60;99.90;;;;;;5028862;28;20029;-77
2022/10/12 10:34:39;;;;;;;28.23;18.52;;;14.70;99.90;;;;;;5029518;28;20037;-78
2022/10/12 10:37:08;;;;;;;26.10;17.25;;;14.80;99.90;;;;;;5030703;28;20030;-77
2022/10/12 10:39:45;;;;;;;28.92;17.38;;;14.90;99.90;;;;;;5031321;28;20095;-77
2022/10/12 10:42:16;;;;;;;29.92;18.27;;;15.00;99.90;;;;;;5017367;28;20390;-77
2022/10/12 10:44:50;;;;;;;30.90;18.77;;;15.10;99.90;;;;;;5030491;28;20496;-77
2022/10/12 10:47:17;;;;;;;30.25;17.85;;;15.20;99.90;;;;;;5030806;28;20033;-77
2022/10/12 10:49:46;;;;;;;26.17;16.42;;;15.30;99.90;;;;;;5031498;28;20032;-78
2022/10/12 10:52:29;;;;;;;29.90;17.98;;;15.30;99.90;;;;;;5031962;28;20500;-76
2022/10/12 10:55:09;;;;;;;27.35;18.35;;;15.40;99.90;;;;;;5030799;28;20032;-76
2022/10/12 10:57:39;;;;;;;25.77;18.10;;;15.40;99.90;;;;;;5029292;28;20029;-76
2022/10/12 11:00:18;;;;;;;28.25;18.13;;;15.40;99.90;;;;;;5030707;28;20048;-76
2022/10/12 11:02:53;;;;;;;26.75;17.08;;;15.30;99.90;;;;;;5029525;28;20104;-76
2022/10/12 11:05:31;;;;;;;27.23;17.23;;;15.40;99.90;;;;;;5030290;28;20030;-76
2022/10/12 11:08:01;;;;;;;26.27;17.52;;;15.40;99.90;;;;;;5029107;28;20021;-76
2022/10/12 11:10:51;;;;;;;27.50;15.13;;;15.50;99.90;;;;;;5018063;28;20474;-76
2022/10/12 11:13:24;;;;;;;24.48;15.10;;;15.50;99.90;;;;;;5027372;28;20053;-76
2022/10/12 11:15:53;;;;;;;23.90;16.00;;;15.50;99.90;;;;;;5019910;28;20049;-76
2022/10/12 11:18:32;;;;;;;23.80;15.13;;;15.60;99.90;;;;;;5030018;28;20065;-76
2022/10/12 11:21:03;;;;;;;24.25;14.93;;;15.70;99.90;;;;;;5030283;28;20018;-76
2022/10/12 11:23:50;;;;;;;23.30;15.75;;;15.80;99.90;;;;;;5028188;28;20030;-75
2022/10/12 11:26:30;;;;;;;27.15;16.33;;;15.90;99.90;;;;;;5030123;28;20113;-76
2022/10/12 11:28:59;;;;;;;27.88;17.02;;;15.90;99.90;;;;;;5030090;28;20088;-76
2022/10/12 11:31:35;;;;;;;24.30;16.27;;;15.90;99.90;;;;;;5023177;28;20032;-76
2022/10/12 11:34:04;;;;;;;26.52;15.95;;;15.90;99.90;;;;;;5022155;28;20378;-76
2022/10/12 11:36:32;;;;;;;26.13;15.70;;;15.90;99.90;;;;;;5029870;28;20123;-76
2022/10/12 11:39:04;;;;;;;31.65;17.35;;;16.00;99.90;;;;;;5030503;28;20034;-78
2022/10/12 11:41:47;;;;;;;27.25;18.67;;;16.00;99.90;;;;;;5030535;28;20033;-78
2022/10/12 11:44:24;;;;;;;27.30;17.48;;;16.00;99.90;;;;;;5030493;28;20025;-78
2022/10/12 11:47:01;;;;;;;29.42;18.13;;;16.10;99.90;;;;;;5029984;28;20029;-76
2022/10/12 11:49:50;;;;;;;27.10;17.17;;;16.10;99.90;;;;;;5029677;28;20083;-76
2022/10/12 11:52:18;;;;;;;28.38;18.42;;;16.20;99.90;;;;;;5029643;28;20041;-76
2022/10/12 11:54:59;;;;;;;31.25;18.27;;;16.00;99.90;;;;;;5029845;28;20057;-76
2022/10/12 11:57:32;;;;;;;31.92;19.13;;;16.00;99.90;;;;;;5029619;28;20034;-76
2022/10/12 12:00:25;;;;;;;29.48;19.35;;;16.00;99.90;;;;;;5029875;28;20033;-75
2022/10/12 12:03:21;;;;;;;30.05;17.45;;;16.00;99.90;;;;;;5016532;28;20045;-76
2022/10/12 12:05:46;;;;;;;30.77;17.02;;;16.00;99.90;;;;;;5028616;28;20037;-76
2022/10/12 12:08:51;;;;;;;25.90;16.17;;;16.00;99.90;;;;;;5013638;28;20036;-76
2022/10/12 12:11:23;;;;;;;32.15;17.25;;;16.10;99.90;;;;;;5023381;28;20696;-76
2022/10/12 12:13:49;;;;;;;27.73;16.92;;;16.10;99.90;;;;;;5029789;28;20022;-76
2022/10/12 12:16:17;;;;;;;28.02;16.77;;;16.00;99.90;;;;;;5029401;28;20045;-76
2022/10/12 12:19:12;;;;;;;28.58;16.35;;;16.00;99.90;;;;;;5029333;28;20072;-76
2022/10/12 12:22:16;;;;;;;28.83;17.73;;;16.00;99.90;;;;;;5029240;28;20488;-76
2022/10/12 12:24:58;;;;;;;26.83;16.25;;;15.90;99.90;;;;;;5029490;28;20025;-76
2022/10/12 12:27:30;;;;;;;26.83;16.10;;;15.90;99.90;;;;;;5031900;28;20375;-76
2022/10/12 12:29:58;;;;;;;25.92;16.60;;;15.90;99.90;;;;;;5033018;28;20026;-76
2022/10/12 12:32:25;;;;;;;27.73;16.95;;;15.90;99.90;;;;;;5026927;28;20041;-76
2022/10/12 12:34:57;;;;;;;24.88;15.30;;;15.90;99.90;;;;;;5032910;28;20025;-76
2022/10/12 12:37:27;;;;;;;30.45;16.60;;;15.90;99.90;;;;;;5032538;28;20064;-76
2022/10/12 12:39:57;;;;;;;22.00;14.93;;;15.90;99.90;;;;;;5033019;28;20037;-76